sensor_id;sensor_type;location;lat;lon;timestamp;temperature;humidity
65207;SHT31;58477;48.072;11.970;2023-06-10T00:01:51;15.79;81.64
65207;SHT31;58477;48.072;11.970;2023-06-10T00:04:20;15.69;81.76
65207;SHT31;58477;48.072;11.970;2023-06-10T00:06:46;15.59;82.24
65207;SHT31;58477;48.072;11.970;2023-06-10T00:09:13;15.61;82.18
65207;SHT31;58477;48.072;11.970;2023-06-10T00:11:40;15.53;82.51
65207;SHT31;58477;48.072;11.970;2023-06-10T00:14:06;15.53;82.54
65207;SHT31;58477;48.072;11.970;2023-06-10T00:16:32;15.38;83.00
65207;SHT31;58477;48.072;11.970;2023-06-10T00:19:01;15.37;83.12
65207;SHT31;58477;48.072;11.970;2023-06-10T00:21:28;15.28;83.20
65207;SHT31;58477;48.072;11.970;2023-06-10T00:23:54;15.28;83.20
65207;SHT31;58477;48.072;11.970;2023-06-10T00:26:22;15.33;83.03
65207;SHT31;58477;48.072;11.970;2023-06-10T00:28:47;15.27;83.36
65207;SHT31;58477;48.072;11.970;2023-06-10T00:31:13;15.27;83.36
65207;SHT31;58477;48.072;11.970;2023-06-10T00:33:38;15.27;83.32
65207;SHT31;58477;48.072;11.970;2023-06-10T00:36:04;15.14;83.65
65207;SHT31;58477;48.072;11.970;2023-06-10T00:38:29;15.06;83.90
65207;SHT31;58477;48.072;11.970;2023-06-10T00:40:55;15.08;83.95
65207;SHT31;58477;48.072;11.970;2023-06-10T00:43:20;14.96;84.21
65207;SHT31;58477;48.072;11.970;2023-06-10T00:45:46;14.96;84.20
65207;SHT31;58477;48.072;11.970;2023-06-10T00:48:11;15.00;84.21
65207;SHT31;58477;48.072;11.970;2023-06-10T00:50:37;14.94;84.39
65207;SHT31;58477;48.072;11.970;2023-06-10T00:53:04;14.97;84.40
65207;SHT31;58477;48.072;11.970;2023-06-10T00:55:31;15.01;84.35
65207;SHT31;58477;48.072;11.970;2023-06-10T00:57:58;15.04;84.26
65207;SHT31;58477;48.072;11.970;2023-06-10T01:00:25;14.96;84.54
65207;SHT31;58477;48.072;11.970;2023-06-10T01:02:51;15.03;84.35
65207;SHT31;58477;48.072;11.970;2023-06-10T01:05:18;15.04;84.55
65207;SHT31;58477;48.072;11.970;2023-06-10T01:07:58;14.91;84.71
65207;SHT31;58477;48.072;11.970;2023-06-10T01:10:35;14.94;85.00
65207;SHT31;58477;48.072;11.970;2023-06-10T01:13:03;14.93;84.94
65207;SHT31;58477;48.072;11.970;2023-06-10T01:15:32;14.84;85.20
65207;SHT31;58477;48.072;11.970;2023-06-10T01:18:08;14.79;85.30
65207;SHT31;58477;48.072;11.970;2023-06-10T01:20:36;14.79;85.45
65207;SHT31;58477;48.072;11.970;2023-06-10T01:23:06;14.79;85.40
65207;SHT31;58477;48.072;11.970;2023-06-10T01:25:32;14.81;85.49
65207;SHT31;58477;48.072;11.970;2023-06-10T01:31:00;14.56;86.17
65207;SHT31;58477;48.072;11.970;2023-06-10T01:33:35;14.40;86.74
65207;SHT31;58477;48.072;11.970;2023-06-10T01:36:01;14.32;86.91
65207;SHT31;58477;48.072;11.970;2023-06-10T01:38:30;14.26;87.18
65207;SHT31;58477;48.072;11.970;2023-06-10T01:40:57;14.45;86.51
65207;SHT31;58477;48.072;11.970;2023-06-10T01:43:23;14.45;86.79
65207;SHT31;58477;48.072;11.970;2023-06-10T01:45:49;14.52;86.64
65207;SHT31;58477;48.072;11.970;2023-06-10T01:48:14;14.52;86.66
65207;SHT31;58477;48.072;11.970;2023-06-10T01:50:41;14.55;86.62
65207;SHT31;58477;48.072;11.970;2023-06-10T01:53:07;14.55;86.87
65207;SHT31;58477;48.072;11.970;2023-06-10T01:55:32;14.52;86.75
65207;SHT31;58477;48.072;11.970;2023-06-10T01:57:57;14.43;87.16
65207;SHT31;58477;48.072;11.970;2023-06-10T02:00:23;14.53;86.85
65207;SHT31;58477;48.072;11.970;2023-06-10T02:02:48;14.45;87.48
65207;SHT31;58477;48.072;11.970;2023-06-10T02:05:14;14.35;87.69
65207;SHT31;58477;48.072;11.970;2023-06-10T02:07:41;14.32;87.74
65207;SHT31;58477;48.072;11.970;2023-06-10T02:10:07;14.29;87.67
65207;SHT31;58477;48.072;11.970;2023-06-10T02:12:33;14.36;87.26
65207;SHT31;58477;48.072;11.970;2023-06-10T02:14:58;14.39;87.29
65207;SHT31;58477;48.072;11.970;2023-06-10T02:17:24;14.30;87.50
65207;SHT31;58477;48.072;11.970;2023-06-10T02:19:49;14.38;87.55
65207;SHT31;58477;48.072;11.970;2023-06-10T02:22:21;14.39;87.36
65207;SHT31;58477;48.072;11.970;2023-06-10T02:24:47;14.39;87.55
65207;SHT31;58477;48.072;11.970;2023-06-10T02:27:12;14.39;87.48
65207;SHT31;58477;48.072;11.970;2023-06-10T02:29:38;14.32;87.82
65207;SHT31;58477;48.072;11.970;2023-06-10T02:32:04;14.33;87.63
65207;SHT31;58477;48.072;11.970;2023-06-10T02:34:30;14.21;87.87
65207;SHT31;58477;48.072;11.970;2023-06-10T02:36:57;14.14;88.40
65207;SHT31;58477;48.072;11.970;2023-06-10T02:39:23;14.06;88.64
65207;SHT31;58477;48.072;11.970;2023-06-10T02:41:49;14.09;88.54
65207;SHT31;58477;48.072;11.970;2023-06-10T02:44:17;14.01;88.72
65207;SHT31;58477;48.072;11.970;2023-06-10T02:46:43;13.94;89.27
65207;SHT31;58477;48.072;11.970;2023-06-10T02:49:09;13.88;89.94
65207;SHT31;58477;48.072;11.970;2023-06-10T02:51:34;14.26;88.62
65207;SHT31;58477;48.072;11.970;2023-06-10T02:54:03;14.25;88.53
65207;SHT31;58477;48.072;11.970;2023-06-10T02:56:29;14.25;88.54
65207;SHT31;58477;48.072;11.970;2023-06-10T02:58:57;14.24;88.64
65207;SHT31;58477;48.072;11.970;2023-06-10T03:01:24;14.14;89.04
65207;SHT31;58477;48.072;11.970;2023-06-10T03:04:01;13.97;89.37
65207;SHT31;58477;48.072;11.970;2023-06-10T03:06:26;14.01;89.56
65207;SHT31;58477;48.072;11.970;2023-06-10T03:09:04;13.86;90.04
65207;SHT31;58477;48.072;11.970;2023-06-10T03:11:30;13.84;90.04
65207;SHT31;58477;48.072;11.970;2023-06-10T03:13:56;13.77;90.40
65207;SHT31;58477;48.072;11.970;2023-06-10T03:16:23;13.78;90.36
65207;SHT31;58477;48.072;11.970;2023-06-10T03:18:50;13.92;89.90
65207;SHT31;58477;48.072;11.970;2023-06-10T03:21:16;14.00;89.85
65207;SHT31;58477;48.072;11.970;2023-06-10T03:23:41;13.95;89.84
65207;SHT31;58477;48.072;11.970;2023-06-10T03:26:07;13.92;90.34
65207;SHT31;58477;48.072;11.970;2023-06-10T03:28:35;13.91;90.53
65207;SHT31;58477;48.072;11.970;2023-06-10T03:31:01;13.92;90.88
65207;SHT31;58477;48.072;11.970;2023-06-10T03:33:30;14.05;90.27
65207;SHT31;58477;48.072;11.970;2023-06-10T03:35:56;14.18;89.73
65207;SHT31;58477;48.072;11.970;2023-06-10T03:38:23;14.16;89.57
65207;SHT31;58477;48.072;11.970;2023-06-10T03:40:48;14.25;89.76
65207;SHT31;58477;48.072;11.970;2023-06-10T03:43:14;14.25;89.28
65207;SHT31;58477;48.072;11.970;2023-06-10T03:45:40;14.32;89.17
65207;SHT31;58477;48.072;11.970;2023-06-10T03:48:06;14.19;89.84
65207;SHT31;58477;48.072;11.970;2023-06-10T03:50:43;14.21;89.89
65207;SHT31;58477;48.072;11.970;2023-06-10T03:53:08;14.39;89.68
65207;SHT31;58477;48.072;11.970;2023-06-10T03:55:35;14.45;89.36
65207;SHT31;58477;48.072;11.970;2023-06-10T03:58:02;14.55;89.24
65207;SHT31;58477;48.072;11.970;2023-06-10T04:00:28;14.59;89.00
65207;SHT31;58477;48.072;11.970;2023-06-10T04:02:54;14.58;89.09
65207;SHT31;58477;48.072;11.970;2023-06-10T04:05:31;14.59;89.18
65207;SHT31;58477;48.072;11.970;2023-06-10T04:07:57;14.62;89.22
65207;SHT31;58477;48.072;11.970;2023-06-10T04:10:22;14.63;89.20
65207;SHT31;58477;48.072;11.970;2023-06-10T04:12:48;14.48;89.74
65207;SHT31;58477;48.072;11.970;2023-06-10T04:15:14;14.60;89.51
65207;SHT31;58477;48.072;11.970;2023-06-10T04:17:40;14.68;89.57
65207;SHT31;58477;48.072;11.970;2023-06-10T04:20:06;14.68;89.74
65207;SHT31;58477;48.072;11.970;2023-06-10T04:22:34;14.73;89.67
65207;SHT31;58477;48.072;11.970;2023-06-10T04:25:00;14.86;89.22
65207;SHT31;58477;48.072;11.970;2023-06-10T04:27:27;14.93;89.22
65207;SHT31;58477;48.072;11.970;2023-06-10T04:29:53;14.81;89.57
65207;SHT31;58477;48.072;11.970;2023-06-10T04:32:19;15.00;89.15
65207;SHT31;58477;48.072;11.970;2023-06-10T04:34:45;15.00;89.28
65207;SHT31;58477;48.072;11.970;2023-06-10T04:37:10;15.06;88.96
65207;SHT31;58477;48.072;11.970;2023-06-10T04:39:35;15.03;89.30
65207;SHT31;58477;48.072;11.970;2023-06-10T04:42:01;15.06;89.20
65207;SHT31;58477;48.072;11.970;2023-06-10T04:44:28;15.08;89.13
65207;SHT31;58477;48.072;11.970;2023-06-10T04:46:54;15.23;88.76
65207;SHT31;58477;48.072;11.970;2023-06-10T04:49:21;15.30;88.85
65207;SHT31;58477;48.072;11.970;2023-06-10T04:51:46;15.44;88.59
65207;SHT31;58477;48.072;11.970;2023-06-10T04:54:12;15.58;88.15
65207;SHT31;58477;48.072;11.970;2023-06-10T04:56:37;15.82;87.81
65207;SHT31;58477;48.072;11.970;2023-06-10T04:59:02;16.63;86.12
65207;SHT31;58477;48.072;11.970;2023-06-10T05:01:28;17.83;83.15
65207;SHT31;58477;48.072;11.970;2023-06-10T05:03:53;18.81;80.37
65207;SHT31;58477;48.072;11.970;2023-06-10T05:06:19;19.44;78.39
65207;SHT31;58477;48.072;11.970;2023-06-10T05:08:44;20.09;77.20
65207;SHT31;58477;48.072;11.970;2023-06-10T05:11:10;20.25;76.46
65207;SHT31;58477;48.072;11.970;2023-06-10T05:13:35;20.46;75.50
65207;SHT31;58477;48.072;11.970;2023-06-10T05:16:01;20.13;76.66
65207;SHT31;58477;48.072;11.970;2023-06-10T05:18:27;20.22;76.40
65207;SHT31;58477;48.072;11.970;2023-06-10T05:20:52;20.63;74.89
65207;SHT31;58477;48.072;11.970;2023-06-10T05:23:19;21.25;73.63
65207;SHT31;58477;48.072;11.970;2023-06-10T05:25:45;21.02;74.05
65207;SHT31;58477;48.072;11.970;2023-06-10T05:28:11;20.70;74.37
65207;SHT31;58477;48.072;11.970;2023-06-10T05:30:36;21.15;72.79
65207;SHT31;58477;48.072;11.970;2023-06-10T05:33:03;21.69;72.34
65207;SHT31;58477;48.072;11.970;2023-06-10T05:35:29;21.66;71.92
65207;SHT31;58477;48.072;11.970;2023-06-10T05:37:54;21.89;71.09
65207;SHT31;58477;48.072;11.970;2023-06-10T05:40:20;21.72;72.01
65207;SHT31;58477;48.072;11.970;2023-06-10T05:42:45;22.57;70.00
65207;SHT31;58477;48.072;11.970;2023-06-10T05:45:11;22.67;69.88
65207;SHT31;58477;48.072;11.970;2023-06-10T05:47:36;22.46;70.11
65207;SHT31;58477;48.072;11.970;2023-06-10T05:50:02;21.78;71.13
65207;SHT31;58477;48.072;11.970;2023-06-10T05:52:28;21.82;70.89
65207;SHT31;58477;48.072;11.970;2023-06-10T05:54:53;22.21;70.17
65207;SHT31;58477;48.072;11.970;2023-06-10T05:57:19;22.29;69.18
65207;SHT31;58477;48.072;11.970;2023-06-10T05:59:45;22.63;69.05
65207;SHT31;58477;48.072;11.970;2023-06-10T06:02:10;22.77;68.77
65207;SHT31;58477;48.072;11.970;2023-06-10T06:04:36;23.41;67.33
65207;SHT31;58477;48.072;11.970;2023-06-10T06:07:01;23.80;65.11
65207;SHT31;58477;48.072;11.970;2023-06-10T06:09:27;22.68;67.42
65207;SHT31;58477;48.072;11.970;2023-06-10T06:11:52;22.65;68.37
65207;SHT31;58477;48.072;11.970;2023-06-10T06:14:18;22.53;69.29
65207;SHT31;58477;48.072;11.970;2023-06-10T06:16:43;22.29;69.16
65207;SHT31;58477;48.072;11.970;2023-06-10T06:19:08;22.73;67.83
65207;SHT31;58477;48.072;11.970;2023-06-10T06:21:36;22.63;68.59
65207;SHT31;58477;48.072;11.970;2023-06-10T06:24:02;23.39;66.66
65207;SHT31;58477;48.072;11.970;2023-06-10T06:26:27;23.25;66.64
65207;SHT31;58477;48.072;11.970;2023-06-10T06:28:52;23.07;66.85
65207;SHT31;58477;48.072;11.970;2023-06-10T06:31:18;23.49;65.98
65207;SHT31;58477;48.072;11.970;2023-06-10T06:33:43;23.03;66.80
65207;SHT31;58477;48.072;11.970;2023-06-10T06:36:09;22.97;67.14
65207;SHT31;58477;48.072;11.970;2023-06-10T06:38:34;23.31;65.96
65207;SHT31;58477;48.072;11.970;2023-06-10T06:41:00;23.98;64.53
65207;SHT31;58477;48.072;11.970;2023-06-10T06:43:29;23.65;64.41
65207;SHT31;58477;48.072;11.970;2023-06-10T06:46:02;23.62;65.51
65207;SHT31;58477;48.072;11.970;2023-06-10T06:48:27;23.55;65.79
65207;SHT31;58477;48.072;11.970;2023-06-10T06:50:53;23.65;65.51
65207;SHT31;58477;48.072;11.970;2023-06-10T06:53:18;24.94;62.92
65207;SHT31;58477;48.072;11.970;2023-06-10T06:55:44;24.98;62.78
65207;SHT31;58477;48.072;11.970;2023-06-10T06:58:09;24.64;63.68
65207;SHT31;58477;48.072;11.970;2023-06-10T07:00:35;24.44;63.88
65207;SHT31;58477;48.072;11.970;2023-06-10T07:03:00;25.25;62.37
65207;SHT31;58477;48.072;11.970;2023-06-10T07:05:26;25.65;61.30
65207;SHT31;58477;48.072;11.970;2023-06-10T07:07:53;25.80;61.34
65207;SHT31;58477;48.072;11.970;2023-06-10T07:10:26;26.30;60.10
65207;SHT31;58477;48.072;11.970;2023-06-10T07:12:52;26.29;60.65
65207;SHT31;58477;48.072;11.970;2023-06-10T07:15:18;25.89;60.82
65207;SHT31;58477;48.072;11.970;2023-06-10T07:17:43;25.80;61.47
65207;SHT31;58477;48.072;11.970;2023-06-10T07:20:10;25.38;61.54
65207;SHT31;58477;48.072;11.970;2023-06-10T07:22:35;26.47;59.42
65207;SHT31;58477;48.072;11.970;2023-06-10T07:25:01;25.96;59.86
65207;SHT31;58477;48.072;11.970;2023-06-10T07:27:27;26.19;59.52
65207;SHT31;58477;48.072;11.970;2023-06-10T07:29:52;26.24;59.44
65207;SHT31;58477;48.072;11.970;2023-06-10T07:32:18;26.61;58.03
65207;SHT31;58477;48.072;11.970;2023-06-10T07:34:45;25.94;60.12
65207;SHT31;58477;48.072;11.970;2023-06-10T07:37:11;26.19;59.53
65207;SHT31;58477;48.072;11.970;2023-06-10T07:39:36;25.89;59.99
65207;SHT31;58477;48.072;11.970;2023-06-10T07:42:02;25.34;60.31
65207;SHT31;58477;48.072;11.970;2023-06-10T07:44:28;25.08;60.48
65207;SHT31;58477;48.072;11.970;2023-06-10T07:46:53;25.99;58.79
65207;SHT31;58477;48.072;11.970;2023-06-10T07:49:19;25.10;59.67
65207;SHT31;58477;48.072;11.970;2023-06-10T07:51:44;24.39;61.69
65207;SHT31;58477;48.072;11.970;2023-06-10T07:54:09;24.26;62.68
65207;SHT31;58477;48.072;11.970;2023-06-10T07:56:37;24.56;62.01
65207;SHT31;58477;48.072;11.970;2023-06-10T07:59:03;24.73;62.39
65207;SHT31;58477;48.072;11.970;2023-06-10T08:01:28;25.75;58.76
65207;SHT31;58477;48.072;11.970;2023-06-10T08:03:55;26.12;57.85
65207;SHT31;58477;48.072;11.970;2023-06-10T08:06:20;26.61;57.38
65207;SHT31;58477;48.072;11.970;2023-06-10T08:08:46;26.50;57.06
65207;SHT31;58477;48.072;11.970;2023-06-10T08:11:13;25.59;58.62
65207;SHT31;58477;48.072;11.970;2023-06-10T08:13:39;26.32;56.74
65207;SHT31;58477;48.072;11.970;2023-06-10T08:16:05;26.78;56.58
65207;SHT31;58477;48.072;11.970;2023-06-10T08:18:31;26.60;57.28
65207;SHT31;58477;48.072;11.970;2023-06-10T08:20:56;27.31;53.90
65207;SHT31;58477;48.072;11.970;2023-06-10T08:23:22;26.87;54.88
65207;SHT31;58477;48.072;11.970;2023-06-10T08:25:47;27.78;54.87
65207;SHT31;58477;48.072;11.970;2023-06-10T08:28:12;27.09;55.31
65207;SHT31;58477;48.072;11.970;2023-06-10T08:30:38;26.54;56.19
65207;SHT31;58477;48.072;11.970;2023-06-10T08:33:03;27.07;55.15
65207;SHT31;58477;48.072;11.970;2023-06-10T08:35:29;27.12;55.88
65207;SHT31;58477;48.072;11.970;2023-06-10T08:37:55;27.93;55.21
65207;SHT31;58477;48.072;11.970;2023-06-10T08:40:21;27.90;55.70
65207;SHT31;58477;48.072;11.970;2023-06-10T08:43:06;27.25;54.48
65207;SHT31;58477;48.072;11.970;2023-06-10T08:45:35;27.28;54.86
65207;SHT31;58477;48.072;11.970;2023-06-10T08:48:05;27.35;54.65
65207;SHT31;58477;48.072;11.970;2023-06-10T08:50:36;27.53;54.14
65207;SHT31;58477;48.072;11.970;2023-06-10T08:53:05;27.66;52.96
65207;SHT31;58477;48.072;11.970;2023-06-10T08:55:38;26.98;52.13
65207;SHT31;58477;48.072;11.970;2023-06-10T08:58:06;27.24;52.80
65207;SHT31;58477;48.072;11.970;2023-06-10T09:00:32;28.17;52.92
65207;SHT31;58477;48.072;11.970;2023-06-10T09:02:59;28.02;53.12
65207;SHT31;58477;48.072;11.970;2023-06-10T09:05:26;28.36;50.92
65207;SHT31;58477;48.072;11.970;2023-06-10T09:07:52;28.46;50.59
65207;SHT31;58477;48.072;11.970;2023-06-10T09:10:19;28.17;51.58
65207;SHT31;58477;48.072;11.970;2023-06-10T09:12:44;28.51;50.48
65207;SHT31;58477;48.072;11.970;2023-06-10T09:15:10;29.21;48.86
65207;SHT31;58477;48.072;11.970;2023-06-10T09:17:38;30.00;48.58
65207;SHT31;58477;48.072;11.970;2023-06-10T09:20:07;29.67;47.69
65207;SHT31;58477;48.072;11.970;2023-06-10T09:22:33;28.98;49.36
65207;SHT31;58477;48.072;11.970;2023-06-10T09:25:06;29.97;47.58
65207;SHT31;58477;48.072;11.970;2023-06-10T09:27:32;29.59;48.87
65207;SHT31;58477;48.072;11.970;2023-06-10T09:29:58;29.55;49.24
65207;SHT31;58477;48.072;11.970;2023-06-10T09:32:24;28.37;52.26
65207;SHT31;58477;48.072;11.970;2023-06-10T09:34:50;28.39;50.91
65207;SHT31;58477;48.072;11.970;2023-06-10T09:37:22;28.36;51.45
65207;SHT31;58477;48.072;11.970;2023-06-10T09:40:02;29.38;49.87
65207;SHT31;58477;48.072;11.970;2023-06-10T09:42:32;29.02;48.78
65207;SHT31;58477;48.072;11.970;2023-06-10T09:44:57;28.07;48.80
65207;SHT31;58477;48.072;11.970;2023-06-10T09:47:24;27.02;51.28
65207;SHT31;58477;48.072;11.970;2023-06-10T09:49:50;26.90;52.94
65207;SHT31;58477;48.072;11.970;2023-06-10T09:52:26;27.14;54.44
65207;SHT31;58477;48.072;11.970;2023-06-10T09:54:52;28.36;50.02
65207;SHT31;58477;48.072;11.970;2023-06-10T09:57:19;28.53;49.17
65207;SHT31;58477;48.072;11.970;2023-06-10T09:59:45;29.22;47.08
65207;SHT31;58477;48.072;11.970;2023-06-10T10:02:15;28.95;49.06
65207;SHT31;58477;48.072;11.970;2023-06-10T10:04:41;28.28;49.65
65207;SHT31;58477;48.072;11.970;2023-06-10T10:07:07;27.48;50.18
65207;SHT31;58477;48.072;11.970;2023-06-10T10:09:36;27.67;51.21
65207;SHT31;58477;48.072;11.970;2023-06-10T10:12:02;28.27;50.76
65207;SHT31;58477;48.072;11.970;2023-06-10T10:14:28;28.97;48.99
65207;SHT31;58477;48.072;11.970;2023-06-10T10:16:57;28.88;48.78
65207;SHT31;58477;48.072;11.970;2023-06-10T10:19:30;28.75;49.96
65207;SHT31;58477;48.072;11.970;2023-06-10T10:22:06;29.39;49.80
65207;SHT31;58477;48.072;11.970;2023-06-10T10:24:38;30.05;47.99
65207;SHT31;58477;48.072;11.970;2023-06-10T10:27:09;29.23;49.01
65207;SHT31;58477;48.072;11.970;2023-06-10T10:29:38;29.82;48.62
65207;SHT31;58477;48.072;11.970;2023-06-10T10:32:06;29.65;47.20
65207;SHT31;58477;48.072;11.970;2023-06-10T10:34:45;30.14;47.28
65207;SHT31;58477;48.072;11.970;2023-06-10T10:37:13;30.33;45.93
65207;SHT31;58477;48.072;11.970;2023-06-10T10:39:38;30.34;46.18
65207;SHT31;58477;48.072;11.970;2023-06-10T10:42:05;30.41;47.14
65207;SHT31;58477;48.072;11.970;2023-06-10T10:44:35;29.82;46.19
65207;SHT31;58477;48.072;11.970;2023-06-10T10:47:02;31.50;44.49
65207;SHT31;58477;48.072;11.970;2023-06-10T10:49:30;30.03;46.38
65207;SHT31;58477;48.072;11.970;2023-06-10T10:54:35;31.41;44.74
65207;SHT31;58477;48.072;11.970;2023-06-10T10:57:22;30.95;44.67
65207;SHT31;58477;48.072;11.970;2023-06-10T11:02:41;31.59;43.89
65207;SHT31;58477;48.072;11.970;2023-06-10T11:05:14;30.88;44.94
65207;SHT31;58477;48.072;11.970;2023-06-10T11:07:40;30.27;46.24
65207;SHT31;58477;48.072;11.970;2023-06-10T11:10:10;32.07;44.08
65207;SHT31;58477;48.072;11.970;2023-06-10T11:12:50;30.45;45.68
65207;SHT31;58477;48.072;11.970;2023-06-10T11:15:24;30.33;46.78
65207;SHT31;58477;48.072;11.970;2023-06-10T11:18:12;30.13;46.15
65207;SHT31;58477;48.072;11.970;2023-06-10T11:23:10;30.95;44.32
65207;SHT31;58477;48.072;11.970;2023-06-10T11:25:39;31.34;44.08
65207;SHT31;58477;48.072;11.970;2023-06-10T11:28:19;30.98;44.57
65207;SHT31;58477;48.072;11.970;2023-06-10T11:30:45;29.52;45.72
65207;SHT31;58477;48.072;11.970;2023-06-10T11:33:16;28.37;48.00
65207;SHT31;58477;48.072;11.970;2023-06-10T11:35:42;29.33;45.44
65207;SHT31;58477;48.072;11.970;2023-06-10T11:38:07;27.79;46.92
65207;SHT31;58477;48.072;11.970;2023-06-10T11:40:33;29.61;44.99
65207;SHT31;58477;48.072;11.970;2023-06-10T11:43:00;29.89;45.40
65207;SHT31;58477;48.072;11.970;2023-06-10T11:45:26;30.20;45.68
65207;SHT31;58477;48.072;11.970;2023-06-10T11:47:56;29.72;45.93
65207;SHT31;58477;48.072;11.970;2023-06-10T11:50:32;28.48;46.31
65207;SHT31;58477;48.072;11.970;2023-06-10T11:52:58;28.98;45.84
65207;SHT31;58477;48.072;11.970;2023-06-10T11:55:43;29.10;45.40
65207;SHT31;58477;48.072;11.970;2023-06-10T11:58:14;31.28;44.31
65207;SHT31;58477;48.072;11.970;2023-06-10T12:00:50;31.18;44.11
65207;SHT31;58477;48.072;11.970;2023-06-10T12:03:36;30.58;48.00
65207;SHT31;58477;48.072;11.970;2023-06-10T12:06:04;28.24;52.97
65207;SHT31;58477;48.072;11.970;2023-06-10T12:08:30;26.77;55.76
65207;SHT31;58477;48.072;11.970;2023-06-10T12:10:56;26.13;57.85
65207;SHT31;58477;48.072;11.970;2023-06-10T12:13:23;25.70;58.50
65207;SHT31;58477;48.072;11.970;2023-06-10T12:15:51;25.12;60.18
65207;SHT31;58477;48.072;11.970;2023-06-10T12:18:24;24.99;60.71
65207;SHT31;58477;48.072;11.970;2023-06-10T12:20:50;24.16;62.09
65207;SHT31;58477;48.072;11.970;2023-06-10T12:23:17;23.92;62.87
65207;SHT31;58477;48.072;11.970;2023-06-10T12:25:53;24.64;62.04
65207;SHT31;58477;48.072;11.970;2023-06-10T12:28:23;24.36;61.94
65207;SHT31;58477;48.072;11.970;2023-06-10T12:30:49;23.92;62.75
65207;SHT31;58477;48.072;11.970;2023-06-10T12:33:21;24.23;62.96
65207;SHT31;58477;48.072;11.970;2023-06-10T12:35:53;24.02;62.35
65207;SHT31;58477;48.072;11.970;2023-06-10T12:38:25;24.21;61.73
65207;SHT31;58477;48.072;11.970;2023-06-10T12:40:53;24.57;60.45
65207;SHT31;58477;48.072;11.970;2023-06-10T12:43:23;24.44;59.14
65207;SHT31;58477;48.072;11.970;2023-06-10T12:45:49;24.24;59.98
65207;SHT31;58477;48.072;11.970;2023-06-10T12:50:43;23.82;61.45
65207;SHT31;58477;48.072;11.970;2023-06-10T12:53:09;23.65;61.27
65207;SHT31;58477;48.072;11.970;2023-06-10T12:55:37;23.99;61.47
65207;SHT31;58477;48.072;11.970;2023-06-10T12:58:03;24.36;60.32
65207;SHT31;58477;48.072;11.970;2023-06-10T13:00:29;24.60;59.61
65207;SHT31;58477;48.072;11.970;2023-06-10T13:02:56;24.81;59.49
65207;SHT31;58477;48.072;11.970;2023-06-10T13:05:22;24.61;60.18
65207;SHT31;58477;48.072;11.970;2023-06-10T13:07:47;25.15;60.27
65207;SHT31;58477;48.072;11.970;2023-06-10T13:10:14;25.66;59.44
65207;SHT31;58477;48.072;11.970;2023-06-10T13:12:40;26.09;56.88
65207;SHT31;58477;48.072;11.970;2023-06-10T13:15:06;25.34;57.81
65207;SHT31;58477;48.072;11.970;2023-06-10T13:17:32;24.80;60.45
65207;SHT31;58477;48.072;11.970;2023-06-10T13:19:59;24.84;60.09
65207;SHT31;58477;48.072;11.970;2023-06-10T13:22:25;24.85;60.31
65207;SHT31;58477;48.072;11.970;2023-06-10T13:24:51;25.10;59.22
65207;SHT31;58477;48.072;11.970;2023-06-10T13:27:17;25.29;59.40
65207;SHT31;58477;48.072;11.970;2023-06-10T13:29:42;24.51;60.21
65207;SHT31;58477;48.072;11.970;2023-06-10T13:32:08;24.85;59.90
65207;SHT31;58477;48.072;11.970;2023-06-10T13:34:33;24.73;59.53
65207;SHT31;58477;48.072;11.970;2023-06-10T13:36:59;24.81;59.00
65207;SHT31;58477;48.072;11.970;2023-06-10T13:39:24;24.46;59.89
65207;SHT31;58477;48.072;11.970;2023-06-10T13:41:50;24.77;58.83
65207;SHT31;58477;48.072;11.970;2023-06-10T13:44:17;24.77;59.40
65207;SHT31;58477;48.072;11.970;2023-06-10T13:46:42;25.32;58.35
65207;SHT31;58477;48.072;11.970;2023-06-10T13:49:08;26.07;56.29
65207;SHT31;58477;48.072;11.970;2023-06-10T13:51:33;26.29;56.24
65207;SHT31;58477;48.072;11.970;2023-06-10T13:53:59;26.22;55.28
65207;SHT31;58477;48.072;11.970;2023-06-10T13:56:25;25.61;56.77
65207;SHT31;58477;48.072;11.970;2023-06-10T13:58:50;25.35;57.05
65207;SHT31;58477;48.072;11.970;2023-06-10T14:01:16;25.41;56.19
65207;SHT31;58477;48.072;11.970;2023-06-10T14:03:41;25.14;56.18
65207;SHT31;58477;48.072;11.970;2023-06-10T14:06:06;25.12;56.10
65207;SHT31;58477;48.072;11.970;2023-06-10T14:08:32;24.80;56.16
65207;SHT31;58477;48.072;11.970;2023-06-10T14:10:58;24.70;57.51
65207;SHT31;58477;48.072;11.970;2023-06-10T14:13:23;24.92;56.53
65207;SHT31;58477;48.072;11.970;2023-06-10T14:15:49;24.92;57.18
65207;SHT31;58477;48.072;11.970;2023-06-10T14:18:14;25.83;54.58
65207;SHT31;58477;48.072;11.970;2023-06-10T14:20:40;26.24;53.91
65207;SHT31;58477;48.072;11.970;2023-06-10T14:23:05;25.94;53.66
65207;SHT31;58477;48.072;11.970;2023-06-10T14:25:31;25.57;53.93
65207;SHT31;58477;48.072;11.970;2023-06-10T14:27:56;25.46;54.06
65207;SHT31;58477;48.072;11.970;2023-06-10T14:30:22;25.94;52.74
65207;SHT31;58477;48.072;11.970;2023-06-10T14:32:48;26.98;51.82
65207;SHT31;58477;48.072;11.970;2023-06-10T14:35:13;27.34;50.49
65207;SHT31;58477;48.072;11.970;2023-06-10T14:37:39;27.82;49.60
65207;SHT31;58477;48.072;11.970;2023-06-10T14:40:06;27.67;51.28
65207;SHT31;58477;48.072;11.970;2023-06-10T14:42:31;27.34;50.90
65207;SHT31;58477;48.072;11.970;2023-06-10T14:44:58;26.43;51.92
65207;SHT31;58477;48.072;11.970;2023-06-10T14:47:23;25.57;53.93
65207;SHT31;58477;48.072;11.970;2023-06-10T14:49:49;25.70;53.61
65207;SHT31;58477;48.072;11.970;2023-06-10T14:52:15;25.66;54.81
65207;SHT31;58477;48.072;11.970;2023-06-10T14:54:40;26.12;53.94
65207;SHT31;58477;48.072;11.970;2023-06-10T14:57:06;25.68;54.95
65207;SHT31;58477;48.072;11.970;2023-06-10T14:59:32;25.88;54.14
65207;SHT31;58477;48.072;11.970;2023-06-10T15:01:58;25.35;55.49
65207;SHT31;58477;48.072;11.970;2023-06-10T15:04:26;24.70;56.97
65207;SHT31;58477;48.072;11.970;2023-06-10T15:06:51;24.27;57.26
65207;SHT31;58477;48.072;11.970;2023-06-10T15:09:17;24.39;57.51
65207;SHT31;58477;48.072;11.970;2023-06-10T15:11:42;24.44;57.18
65207;SHT31;58477;48.072;11.970;2023-06-10T15:14:08;24.77;55.72
65207;SHT31;58477;48.072;11.970;2023-06-10T15:16:33;24.78;56.77
65207;SHT31;58477;48.072;11.970;2023-06-10T15:18:58;24.91;58.91
65207;SHT31;58477;48.072;11.970;2023-06-10T15:21:24;24.98;59.38
65207;SHT31;58477;48.072;11.970;2023-06-10T15:23:49;25.43;58.75
65207;SHT31;58477;48.072;11.970;2023-06-10T15:26:15;25.29;58.19
65207;SHT31;58477;48.072;11.970;2023-06-10T15:28:40;24.91;58.67